sensor_id;sensor_type;location;lat;lon;timestamp;pressure;altitude;pressure_sealevel;temperature;humidity
37648;BME280;23490;53.656;10.076;2022-08-04T00:00:27;55743.94;;;-145.95;79.21
37648;BME280;23490;53.656;10.076;2022-08-04T00:03:15;55770.47;;;-145.95;80.75
37648;BME280;23490;53.656;10.076;2022-08-04T00:05:59;55758.22;;;-145.95;81.61
37648;BME280;23490;53.656;10.076;2022-08-04T00:08:36;55731.72;;;-145.95;81.98
37648;BME280;23490;53.656;10.076;2022-08-04T00:11:07;55758.22;;;-145.95;83.23
37648;BME280;23490;53.656;10.076;2022-08-04T00:13:37;55780.66;;;-145.95;82.66
37648;BME280;23490;53.656;10.076;2022-08-04T00:16:06;55760.25;;;-145.95;83.29
37648;BME280;23490;53.656;10.076;2022-08-04T00:18:38;55776.56;;;-145.95;81.77
37648;BME280;23490;53.656;10.076;2022-08-04T00:21:05;55764.34;;;-145.95;82.02
37648;BME280;23490;53.656;10.076;2022-08-04T00:23:35;55723.56;;;-145.95;81.91
37648;BME280;23490;53.656;10.076;2022-08-04T00:26:02;55746.00;;;-145.95;82.99
37648;BME280;23490;53.656;10.076;2022-08-04T00:28:28;55739.88;;;-145.95;82.42
37648;BME280;23490;53.656;10.076;2022-08-04T00:30:55;55715.41;;;-145.95;83.03
37648;BME280;23490;53.656;10.076;2022-08-04T00:33:21;55772.50;;;-145.95;82.81
37648;BME280;23490;53.656;10.076;2022-08-04T00:35:47;55792.88;;;-145.95;82.28
37648;BME280;23490;53.656;10.076;2022-08-04T00:38:15;55739.88;;;-145.95;83.26
37648;BME280;23490;53.656;10.076;2022-08-04T00:41:48;55743.94;;;-145.95;84.31
37648;BME280;23490;53.656;10.076;2022-08-04T00:43:54;55772.50;;;-145.95;85.33
37648;BME280;23490;53.656;10.076;2022-08-04T00:51:40;55748.03;;;-145.95;84.64
37648;BME280;23490;53.656;10.076;2022-08-04T00:54:28;55776.56;;;-145.95;85.67
37648;BME280;23490;53.656;10.076;2022-08-04T00:57:25;55776.56;;;-145.95;86.45
37648;BME280;23490;53.656;10.076;2022-08-04T01:02:36;55780.66;;;-145.95;85.72
37648;BME280;23490;53.656;10.076;2022-08-04T01:05:19;55739.88;;;-145.95;85.90
37648;BME280;23490;53.656;10.076;2022-08-04T01:08:14;55788.81;;;-145.95;86.93
37648;BME280;23490;53.656;10.076;2022-08-04T01:16:26;55778.63;;;-145.95;86.13
37648;BME280;23490;53.656;10.076;2022-08-04T01:18:58;55735.78;;;-145.95;86.95
37648;BME280;23490;53.656;10.076;2022-08-04T01:24:43;55752.09;;;-145.95;86.52
37648;BME280;23490;53.656;10.076;2022-08-04T01:30:19;55756.19;;;-145.95;87.02
37648;BME280;23490;53.656;10.076;2022-08-04T01:32:51;55735.78;;;-145.95;86.75
37648;BME280;23490;53.656;10.076;2022-08-04T01:35:23;55784.72;;;-145.95;87.66
37648;BME280;23490;53.656;10.076;2022-08-04T01:40:36;55805.13;;;-145.95;87.53
37648;BME280;23490;53.656;10.076;2022-08-04T01:43:02;55768.41;;;-145.95;88.05
37648;BME280;23490;53.656;10.076;2022-08-04T01:45:29;55788.81;;;-145.95;88.22
37648;BME280;23490;53.656;10.076;2022-08-04T01:47:56;55778.63;;;-145.95;87.91
37648;BME280;23490;53.656;10.076;2022-08-04T01:50:22;55758.22;;;-145.95;87.73
37648;BME280;23490;53.656;10.076;2022-08-04T01:52:51;55731.72;;;-145.95;87.79
37648;BME280;23490;53.656;10.076;2022-08-04T01:55:17;55772.50;;;-145.95;87.67
37648;BME280;23490;53.656;10.076;2022-08-04T01:57:45;55764.34;;;-145.95;87.84
37648;BME280;23490;53.656;10.076;2022-08-04T02:00:13;55764.34;;;-145.95;88.43
37648;BME280;23490;53.656;10.076;2022-08-04T02:02:39;55731.72;;;-145.95;89.26
37648;BME280;23490;53.656;10.076;2022-08-04T02:05:05;55768.41;;;-145.95;89.94
37648;BME280;23490;53.656;10.076;2022-08-04T02:10:11;55776.56;;;-145.95;89.21
37648;BME280;23490;53.656;10.076;2022-08-04T02:18:29;55768.41;;;-145.95;87.47
37648;BME280;23490;53.656;10.076;2022-08-04T02:20:57;55796.97;;;-145.95;87.18
37648;BME280;23490;53.656;10.076;2022-08-04T02:23:37;55792.88;;;-145.95;87.30
37648;BME280;23490;53.656;10.076;2022-08-04T02:26:04;55772.50;;;-145.95;87.30
37648;BME280;23490;53.656;10.076;2022-08-04T02:28:37;55772.50;;;-145.95;87.25
37648;BME280;23490;53.656;10.076;2022-08-04T02:31:13;55768.41;;;-145.95;87.43
37648;BME280;23490;53.656;10.076;2022-08-04T02:33:51;55737.84;;;-145.95;87.25
37648;BME280;23490;53.656;10.076;2022-08-04T02:36:23;55752.09;;;-145.95;87.65
37648;BME280;23490;53.656;10.076;2022-08-04T02:38:58;55772.50;;;-145.95;88.23
37648;BME280;23490;53.656;10.076;2022-08-04T02:41:25;55801.03;;;-145.95;88.08
37648;BME280;23490;53.656;10.076;2022-08-04T02:43:54;55770.47;;;-145.95;89.11
37648;BME280;23490;53.656;10.076;2022-08-04T02:46:21;55796.97;;;-145.95;90.01
37648;BME280;23490;53.656;10.076;2022-08-04T02:48:48;55768.41;;;-145.95;88.61
37648;BME280;23490;53.656;10.076;2022-08-04T02:51:16;55739.88;;;-145.95;88.89
37648;BME280;23490;53.656;10.076;2022-08-04T02:53:42;55768.41;;;-145.95;89.16
37648;BME280;23490;53.656;10.076;2022-08-04T02:56:08;55772.50;;;-145.95;89.36
37648;BME280;23490;53.656;10.076;2022-08-04T02:58:34;55782.69;;;-145.95;90.09
37648;BME280;23490;53.656;10.076;2022-08-04T03:01:02;55772.50;;;-145.95;89.56
37648;BME280;23490;53.656;10.076;2022-08-04T03:03:47;55776.56;;;-145.95;89.06
37648;BME280;23490;53.656;10.076;2022-08-04T03:06:28;55752.09;;;-145.95;89.10
37648;BME280;23490;53.656;10.076;2022-08-04T03:11:48;55796.97;;;-145.95;88.71
37648;BME280;23490;53.656;10.076;2022-08-04T03:20:55;55774.53;;;-145.95;89.19
37648;BME280;23490;53.656;10.076;2022-08-04T03:29:35;55776.56;;;-145.95;89.19
37648;BME280;23490;53.656;10.076;2022-08-04T03:32:22;55723.56;;;-145.95;89.59
37648;BME280;23490;53.656;10.076;2022-08-04T03:35:15;55774.53;;;-145.95;89.55
37648;BME280;23490;53.656;10.076;2022-08-04T03:38:10;55784.72;;;-145.95;89.65
37648;BME280;23490;53.656;10.076;2022-08-04T03:48:50;55772.50;;;-145.95;89.74
37648;BME280;23490;53.656;10.076;2022-08-04T03:51:23;55764.34;;;-145.95;89.32
37648;BME280;23490;53.656;10.076;2022-08-04T03:54:32;55766.38;;;-145.95;89.59
37648;BME280;23490;53.656;10.076;2022-08-04T04:05:29;55756.19;;;-145.95;89.86
37648;BME280;23490;53.656;10.076;2022-08-04T04:08:10;55756.19;;;-145.95;89.34
37648;BME280;23490;53.656;10.076;2022-08-04T04:10:53;55768.41;;;-145.95;89.61
37648;BME280;23490;53.656;10.076;2022-08-04T04:13:28;55764.34;;;-145.95;90.04
37648;BME280;23490;53.656;10.076;2022-08-04T04:19:00;55813.28;;;-145.95;89.96
37648;BME280;23490;53.656;10.076;2022-08-04T04:26:56;55774.53;;;-145.95;90.07
37648;BME280;23490;53.656;10.076;2022-08-04T04:29:28;55723.56;;;-145.95;89.90
37648;BME280;23490;53.656;10.076;2022-08-04T04:32:12;55735.78;;;-145.95;89.94
37648;BME280;23490;53.656;10.076;2022-08-04T04:37:33;55784.72;;;-145.95;90.00
37648;BME280;23490;53.656;10.076;2022-08-04T04:43:59;55770.47;;;-145.95;89.74
37648;BME280;23490;53.656;10.076;2022-08-04T04:54:52;55786.78;;;-145.95;90.14
37648;BME280;23490;53.656;10.076;2022-08-04T04:57:22;55752.09;;;-145.95;90.92
37648;BME280;23490;53.656;10.076;2022-08-04T04:59:57;55784.72;;;-145.95;91.18
37648;BME280;23490;53.656;10.076;2022-08-04T05:05:25;55825.53;;;-145.95;90.45
37648;BME280;23490;53.656;10.076;2022-08-04T05:13:52;55760.25;;;-145.95;90.44
37648;BME280;23490;53.656;10.076;2022-08-04T05:16:35;55796.97;;;-145.95;89.60
37648;BME280;23490;53.656;10.076;2022-08-04T05:22:13;55841.84;;;-145.95;88.66
37648;BME280;23490;53.656;10.076;2022-08-04T05:24:45;55821.44;;;-145.95;88.46
37648;BME280;23490;53.656;10.076;2022-08-04T05:27:27;55776.56;;;-145.95;87.06
37648;BME280;23490;53.656;10.076;2022-08-04T05:29:58;55784.72;;;-145.95;85.00
37648;BME280;23490;53.656;10.076;2022-08-04T05:32:30;55768.41;;;-145.95;85.08
37648;BME280;23490;53.656;10.076;2022-08-04T05:35:03;55813.28;;;-145.95;84.06
37648;BME280;23490;53.656;10.076;2022-08-04T05:37:30;55825.53;;;-145.95;82.53
37648;BME280;23490;53.656;10.076;2022-08-04T05:39:59;55788.81;;;-145.95;81.69
37648;BME280;23490;53.656;10.076;2022-08-04T05:42:29;55805.13;;;-145.95;81.59
37648;BME280;23490;53.656;10.076;2022-08-04T05:44:56;55794.94;;;-145.95;82.32
37648;BME280;23490;53.656;10.076;2022-08-04T05:47:23;55809.19;;;-145.95;80.01
37648;BME280;23490;53.656;10.076;2022-08-04T05:49:49;55813.28;;;-145.95;78.30
37648;BME280;23490;53.656;10.076;2022-08-04T05:52:15;55815.31;;;-145.95;78.08
37648;BME280;23490;53.656;10.076;2022-08-04T05:54:41;55801.03;;;-145.95;77.30
37648;BME280;23490;53.656;10.076;2022-08-04T05:57:08;55829.59;;;-145.95;76.60
37648;BME280;23490;53.656;10.076;2022-08-04T05:59:38;55809.19;;;-145.95;78.21
37648;BME280;23490;53.656;10.076;2022-08-04T06:02:06;55809.19;;;-145.95;75.10
37648;BME280;23490;53.656;10.076;2022-08-04T06:04:38;55825.53;;;-145.95;76.76
37648;BME280;23490;53.656;10.076;2022-08-04T06:07:05;55788.81;;;-145.95;73.83
37648;BME280;23490;53.656;10.076;2022-08-04T06:09:31;55790.84;;;-145.95;76.06
37648;BME280;23490;53.656;10.076;2022-08-04T06:12:02;55847.94;;;-145.95;74.02
37648;BME280;23490;53.656;10.076;2022-08-04T06:14:32;55805.13;;;-145.95;74.28
37648;BME280;23490;53.656;10.076;2022-08-04T06:17:00;55847.94;;;-145.95;75.55
37648;BME280;23490;53.656;10.076;2022-08-04T06:19:28;55796.97;;;-145.95;73.18
37648;BME280;23490;53.656;10.076;2022-08-04T06:21:55;55854.06;;;-145.95;71.63
37648;BME280;23490;53.656;10.076;2022-08-04T06:24:25;55841.84;;;-145.95;72.15
37648;BME280;23490;53.656;10.076;2022-08-04T06:26:53;55870.38;;;-145.95;71.88
37648;BME280;23490;53.656;10.076;2022-08-04T06:29:20;55801.03;;;-145.95;70.94
37648;BME280;23490;53.656;10.076;2022-08-04T06:31:51;55827.56;;;-145.95;70.28
37648;BME280;23490;53.656;10.076;2022-08-04T06:34:28;55850.00;;;-145.95;71.32
37648;BME280;23490;53.656;10.076;2022-08-04T06:36:54;55821.44;;;-145.95;71.10
37648;BME280;23490;53.656;10.076;2022-08-04T06:39:22;55807.16;;;-145.95;68.58
37648;BME280;23490;53.656;10.076;2022-08-04T06:41:49;55825.53;;;-145.95;68.40
37648;BME280;23490;53.656;10.076;2022-08-04T06:44:18;55845.91;;;-145.95;68.55
37648;BME280;23490;53.656;10.076;2022-08-04T06:46:44;55821.44;;;-145.95;68.63
37648;BME280;23490;53.656;10.076;2022-08-04T06:49:10;55805.13;;;-145.95;68.08
37648;BME280;23490;53.656;10.076;2022-08-04T06:51:37;55850.00;;;-145.95;68.13
37648;BME280;23490;53.656;10.076;2022-08-04T06:54:04;55817.34;;;-145.95;66.32
37648;BME280;23490;53.656;10.076;2022-08-04T06:56:30;55890.78;;;-145.95;66.59
37648;BME280;23490;53.656;10.076;2022-08-04T06:58:58;55790.84;;;-145.95;68.93
37648;BME280;23490;53.656;10.076;2022-08-04T07:01:24;55850.00;;;-145.95;65.19
37648;BME280;23490;53.656;10.076;2022-08-04T07:03:50;55839.78;;;-145.95;63.51
37648;BME280;23490;53.656;10.076;2022-08-04T07:06:16;55870.38;;;-145.95;64.34
37648;BME280;23490;53.656;10.076;2022-08-04T07:08:43;55856.09;;;-145.95;62.48
37648;BME280;23490;53.656;10.076;2022-08-04T07:11:09;55796.97;;;-145.95;62.20
37648;BME280;23490;53.656;10.076;2022-08-04T07:13:36;55827.56;;;-145.95;62.76
37648;BME280;23490;53.656;10.076;2022-08-04T07:16:01;55809.19;;;-145.95;63.49
37648;BME280;23490;53.656;10.076;2022-08-04T07:18:30;55856.09;;;-145.95;62.37
37648;BME280;23490;53.656;10.076;2022-08-04T07:20:56;55837.75;;;-145.95;64.21
37648;BME280;23490;53.656;10.076;2022-08-04T07:23:24;55894.84;;;-145.95;60.50
37648;BME280;23490;53.656;10.076;2022-08-04T07:25:52;55874.47;;;-145.95;60.13
37648;BME280;23490;53.656;10.076;2022-08-04T07:28:19;55866.31;;;-145.95;59.82
37648;BME280;23490;53.656;10.076;2022-08-04T07:30:46;55872.41;;;-145.95;59.47
37648;BME280;23490;53.656;10.076;2022-08-04T07:33:13;55862.22;;;-145.95;56.66
37648;BME280;23490;53.656;10.076;2022-08-04T07:35:40;55817.34;;;-145.95;55.47
37648;BME280;23490;53.656;10.076;2022-08-04T07:38:05;55874.47;;;-145.95;55.25
37648;BME280;23490;53.656;10.076;2022-08-04T07:40:31;55907.09;;;-145.95;57.89
37648;BME280;23490;53.656;10.076;2022-08-04T07:42:57;55829.59;;;-145.95;56.23
37648;BME280;23490;53.656;10.076;2022-08-04T07:45:24;55856.09;;;-145.95;56.35
37648;BME280;23490;53.656;10.076;2022-08-04T07:47:50;55870.38;;;-145.95;55.59
37648;BME280;23490;53.656;10.076;2022-08-04T07:50:15;55882.63;;;-145.95;55.19
37648;BME280;23490;53.656;10.076;2022-08-04T07:52:42;55847.94;;;-145.95;53.55
37648;BME280;23490;53.656;10.076;2022-08-04T07:55:09;55915.25;;;-145.95;52.24
37648;BME280;23490;53.656;10.076;2022-08-04T07:57:35;55886.69;;;-145.95;52.39
37648;BME280;23490;53.656;10.076;2022-08-04T08:00:03;55833.66;;;-145.95;52.55
37648;BME280;23490;53.656;10.076;2022-08-04T08:02:29;55898.94;;;-145.95;51.08
37648;BME280;23490;53.656;10.076;2022-08-04T08:04:54;55858.16;;;-145.95;52.94
37648;BME280;23490;53.656;10.076;2022-08-04T08:07:20;55886.69;;;-145.95;52.28
37648;BME280;23490;53.656;10.076;2022-08-04T08:09:45;55909.13;;;-145.95;52.05
37648;BME280;23490;53.656;10.076;2022-08-04T08:12:11;55890.78;;;-145.95;50.87
37648;BME280;23490;53.656;10.076;2022-08-04T08:14:38;55890.78;;;-145.95;50.26
37648;BME280;23490;53.656;10.076;2022-08-04T08:17:05;55937.66;;;-145.95;49.88
37648;BME280;23490;53.656;10.076;2022-08-04T08:19:31;55876.50;;;-145.95;50.01
37648;BME280;23490;53.656;10.076;2022-08-04T08:21:57;55866.31;;;-145.95;50.92
37648;BME280;23490;53.656;10.076;2022-08-04T08:24:23;55903.00;;;-145.95;48.69
37648;BME280;23490;53.656;10.076;2022-08-04T08:26:48;55907.09;;;-145.95;48.71
37648;BME280;23490;53.656;10.076;2022-08-04T08:29:14;55854.06;;;-145.95;48.75
37648;BME280;23490;53.656;10.076;2022-08-04T08:31:40;55909.13;;;-145.95;49.17
37648;BME280;23490;53.656;10.076;2022-08-04T08:34:05;55898.94;;;-145.95;47.80
37648;BME280;23490;53.656;10.076;2022-08-04T08:36:36;55943.78;;;-145.95;46.67
37648;BME280;23490;53.656;10.076;2022-08-04T08:39:12;55854.06;;;-145.95;46.37
37648;BME280;23490;53.656;10.076;2022-08-04T08:51:13;55907.09;;;-145.95;45.17
37648;BME280;23490;53.656;10.076;2022-08-04T08:54:03;55898.94;;;-145.95;45.52
37648;BME280;23490;53.656;10.076;2022-08-04T08:56:57;55921.34;;;-145.95;44.49
37648;BME280;23490;53.656;10.076;2022-08-04T09:02:59;55923.41;;;-145.95;42.90
37648;BME280;23490;53.656;10.076;2022-08-04T09:08:25;55947.88;;;-145.95;43.15
37648;BME280;23490;53.656;10.076;2022-08-04T09:10:59;55909.13;;;-145.95;40.85
37648;BME280;23490;53.656;10.076;2022-08-04T09:13:47;55919.31;;;-145.95;42.35
37648;BME280;23490;53.656;10.076;2022-08-04T09:16:34;55939.72;;;-145.95;39.52
37648;BME280;23490;53.656;10.076;2022-08-04T09:19:32;55909.13;;;-145.95;37.93
37648;BME280;23490;53.656;10.076;2022-08-04T09:22:19;55988.66;;;-145.95;37.50
37648;BME280;23490;53.656;10.076;2022-08-04T09:24:58;55933.59;;;-145.95;37.46
37648;BME280;23490;53.656;10.076;2022-08-04T09:27:31;55939.72;;;-145.95;37.36
37648;BME280;23490;53.656;10.076;2022-08-04T09:30:04;55951.94;;;-145.95;36.39
37648;BME280;23490;53.656;10.076;2022-08-04T09:35:38;55933.59;;;-145.95;35.89
37648;BME280;23490;53.656;10.076;2022-08-04T09:40:53;55929.50;;;-145.95;34.00
37648;BME280;23490;53.656;10.076;2022-08-04T09:46:02;55931.56;;;-145.95;33.33
37648;BME280;23490;53.656;10.076;2022-08-04T09:48:38;55939.72;;;-145.95;33.62
37648;BME280;23490;53.656;10.076;2022-08-04T09:51:23;55935.63;;;-145.95;33.81
37648;BME280;23490;53.656;10.076;2022-08-04T09:54:02;55943.78;;;-145.95;33.23
37648;BME280;23490;53.656;10.076;2022-08-04T09:56:38;55943.78;;;-145.95;33.65
37648;BME280;23490;53.656;10.076;2022-08-04T09:59:33;55935.63;;;-145.95;33.67
37648;BME280;23490;53.656;10.076;2022-08-04T10:02:05;55943.78;;;-145.95;33.73
37648;BME280;23490;53.656;10.076;2022-08-04T10:04:34;55951.94;;;-145.95;33.01
37648;BME280;23490;53.656;10.076;2022-08-04T10:07:20;55937.66;;;-145.95;32.71
37648;BME280;23490;53.656;10.076;2022-08-04T10:10:16;55925.44;;;-145.95;31.91
37648;BME280;23490;53.656;10.076;2022-08-04T10:15:27;55923.41;;;-145.95;32.16
37648;BME280;23490;53.656;10.076;2022-08-04T10:18:10;55927.47;;;-145.95;31.99
37648;BME280;23490;53.656;10.076;2022-08-04T10:21:00;55947.88;;;-145.95;32.15
37648;BME280;23490;53.656;10.076;2022-08-04T10:23:46;55915.25;;;-145.95;30.49
37648;BME280;23490;53.656;10.076;2022-08-04T10:26:26;55943.78;;;-145.95;31.03
37648;BME280;23490;53.656;10.076;2022-08-04T10:32:22;55939.72;;;-145.95;31.93
37648;BME280;23490;53.656;10.076;2022-08-04T10:37:49;55915.25;;;-145.95;32.70
37648;BME280;23490;53.656;10.076;2022-08-04T10:40:27;55939.72;;;-145.95;32.47
37648;BME280;23490;53.656;10.076;2022-08-04T10:45:43;55935.63;;;-145.95;34.33
37648;BME280;23490;53.656;10.076;2022-08-04T10:49:06;55960.09;;;-145.95;34.87
37648;BME280;23490;53.656;10.076;2022-08-04T10:51:20;55894.84;;;-145.95;34.66
37648;BME280;23490;53.656;10.076;2022-08-04T10:53:54;55929.50;;;-145.95;34.33
37648;BME280;23490;53.656;10.076;2022-08-04T10:56:54;55927.47;;;-145.95;32.61
37648;BME280;23490;53.656;10.076;2022-08-04T10:59:27;55939.72;;;-145.95;32.40
37648;BME280;23490;53.656;10.076;2022-08-04T11:01:57;55958.06;;;-145.95;32.06
37648;BME280;23490;53.656;10.076;2022-08-04T11:04:30;55915.25;;;-145.95;32.49
37648;BME280;23490;53.656;10.076;2022-08-04T11:07:00;55964.19;;;-145.95;31.98
37648;BME280;23490;53.656;10.076;2022-08-04T11:09:27;55939.72;;;-145.95;30.53
37648;BME280;23490;53.656;10.076;2022-08-04T11:12:04;55956.03;;;-145.95;31.44
37648;BME280;23490;53.656;10.076;2022-08-04T11:14:38;55935.63;;;-145.95;31.89
37648;BME280;23490;53.656;10.076;2022-08-04T11:17:07;55945.84;;;-145.95;30.61
37648;BME280;23490;53.656;10.076;2022-08-04T11:19:48;55927.47;;;-145.95;31.81
37648;BME280;23490;53.656;10.076;2022-08-04T11:22:26;55956.03;;;-145.95;31.31
37648;BME280;23490;53.656;10.076;2022-08-04T11:25:12;55960.09;;;-145.95;30.67
37648;BME280;23490;53.656;10.076;2022-08-04T11:34:03;55968.25;;;-145.95;29.98
37648;BME280;23490;53.656;10.076;2022-08-04T11:36:40;55960.09;;;-145.95;30.56
37648;BME280;23490;53.656;10.076;2022-08-04T11:39:29;55939.72;;;-145.95;31.60
37648;BME280;23490;53.656;10.076;2022-08-04T11:42:05;55947.88;;;-145.95;30.64
37648;BME280;23490;53.656;10.076;2022-08-04T11:44:50;55917.28;;;-145.95;30.13
37648;BME280;23490;53.656;10.076;2022-08-04T11:47:32;55941.75;;;-145.95;30.80
37648;BME280;23490;53.656;10.076;2022-08-04T11:50:06;55943.78;;;-145.95;30.86
37648;BME280;23490;53.656;10.076;2022-08-04T11:52:33;55947.88;;;-145.95;31.16
37648;BME280;23490;53.656;10.076;2022-08-04T11:55:04;55923.41;;;-145.95;31.30
37648;BME280;23490;53.656;10.076;2022-08-04T11:57:31;55900.97;;;-145.95;31.43
37648;BME280;23490;53.656;10.076;2022-08-04T11:59:57;55907.09;;;-145.95;30.68
37648;BME280;23490;53.656;10.076;2022-08-04T12:02:40;55927.47;;;-145.95;31.15
37648;BME280;23490;53.656;10.076;2022-08-04T12:05:16;55925.44;;;-145.95;30.23
37648;BME280;23490;53.656;10.076;2022-08-04T12:07:53;55943.78;;;-145.95;28.95
37648;BME280;23490;53.656;10.076;2022-08-04T12:10:35;55919.31;;;-145.95;29.73
37648;BME280;23490;53.656;10.076;2022-08-04T12:13:23;55909.13;;;-145.95;30.46
37648;BME280;23490;53.656;10.076;2022-08-04T12:18:58;55898.94;;;-145.95;30.65
37648;BME280;23490;53.656;10.076;2022-08-04T12:21:41;55898.94;;;-145.95;31.16
37648;BME280;23490;53.656;10.076;2022-08-04T12:24:16;55937.66;;;-145.95;30.86
37648;BME280;23490;53.656;10.076;2022-08-04T12:26:49;55903.00;;;-145.95;31.01
37648;BME280;23490;53.656;10.076;2022-08-04T12:29:17;55917.28;;;-145.95;29.92
37648;BME280;23490;53.656;10.076;2022-08-04T12:31:47;55925.44;;;-145.95;29.23
37648;BME280;23490;53.656;10.076;2022-08-04T12:34:34;55951.94;;;-145.95;29.93
37648;BME280;23490;53.656;10.076;2022-08-04T12:39:44;55907.09;;;-145.95;28.42
37648;BME280;23490;53.656;10.076;2022-08-04T12:42:23;55917.28;;;-145.95;28.26
37648;BME280;23490;53.656;10.076;2022-08-04T12:44:51;55923.41;;;-145.95;28.60
37648;BME280;23490;53.656;10.076;2022-08-04T12:47:24;55927.47;;;-145.95;28.08
37648;BME280;23490;53.656;10.076;2022-08-04T12:49:52;55939.72;;;-145.95;28.13
37648;BME280;23490;53.656;10.076;2022-08-04T12:52:19;55903.00;;;-145.95;28.10
37648;BME280;23490;53.656;10.076;2022-08-04T12:54:47;55882.63;;;-145.95;27.19
37648;BME280;23490;53.656;10.076;2022-08-04T12:57:16;55896.88;;;-145.95;27.71
37648;BME280;23490;53.656;10.076;2022-08-04T12:59:43;55882.63;;;-145.95;26.49
37648;BME280;23490;53.656;10.076;2022-08-04T13:02:29;55878.53;;;-145.95;26.67
37648;BME280;23490;53.656;10.076;2022-08-04T13:04:59;55907.09;;;-145.95;27.34
37648;BME280;23490;53.656;10.076;2022-08-04T13:07:35;55919.31;;;-145.95;27.20
37648;BME280;23490;53.656;10.076;2022-08-04T13:10:14;55911.16;;;-145.95;26.17
37648;BME280;23490;53.656;10.076;2022-08-04T13:12:49;55898.94;;;-145.95;27.72
37648;BME280;23490;53.656;10.076;2022-08-04T13:15:17;55915.25;;;-145.95;26.61
37648;BME280;23490;53.656;10.076;2022-08-04T13:17:50;55866.31;;;-145.95;26.48
37648;BME280;23490;53.656;10.076;2022-08-04T13:20:25;55909.13;;;-145.95;26.89
37648;BME280;23490;53.656;10.076;2022-08-04T13:22:52;55947.88;;;-145.95;26.84
37648;BME280;23490;53.656;10.076;2022-08-04T13:25:27;55882.63;;;-145.95;27.72
37648;BME280;23490;53.656;10.076;2022-08-04T13:27:52;55866.31;;;-145.95;28.30
37648;BME280;23490;53.656;10.076;2022-08-04T13:30:18;55909.13;;;-145.95;28.42
37648;BME280;23490;53.656;10.076;2022-08-04T13:32:44;55907.09;;;-145.95;29.23
37648;BME280;23490;53.656;10.076;2022-08-04T13:35:11;55854.06;;;-145.95;29.08
37648;BME280;23490;53.656;10.076;2022-08-04T13:37:38;55898.94;;;-145.95;28.54
37648;BME280;23490;53.656;10.076;2022-08-04T13:40:05;55921.34;;;-145.95;29.15
37648;BME280;23490;53.656;10.076;2022-08-04T13:42:34;55862.22;;;-145.95;29.56
37648;BME280;23490;53.656;10.076;2022-08-04T13:45:03;55943.78;;;-145.95;27.99
37648;BME280;23490;53.656;10.076;2022-08-04T13:47:32;55896.88;;;-145.95;28.98
37648;BME280;23490;53.656;10.076;2022-08-04T13:52:36;55898.94;;;-145.95;29.14
37648;BME280;23490;53.656;10.076;2022-08-04T13:55:02;55847.94;;;-145.95;29.28
37648;BME280;23490;53.656;10.076;2022-08-04T13:57:35;55866.31;;;-145.95;29.70
37648;BME280;23490;53.656;10.076;2022-08-04T14:00:08;55817.34;;;-145.95;29.95
37648;BME280;23490;53.656;10.076;2022-08-04T14:02:37;55833.66;;;-145.95;28.77
37648;BME280;23490;53.656;10.076;2022-08-04T14:05:16;55900.97;;;-145.95;29.17
37648;BME280;23490;53.656;10.076;2022-08-04T14:07:50;55923.41;;;-145.95;29.04
37648;BME280;23490;53.656;10.076;2022-08-04T14:10:17;55868.34;;;-145.95;29.65
37648;BME280;23490;53.656;10.076;2022-08-04T14:12:47;55847.94;;;-145.95;28.29
37648;BME280;23490;53.656;10.076;2022-08-04T14:15:33;55845.91;;;-145.95;28.63
37648;BME280;23490;53.656;10.076;2022-08-04T14:18:21;55837.75;;;-145.95;29.37
37648;BME280;23490;53.656;10.076;2022-08-04T14:23:25;55880.56;;;-145.95;28.32
37648;BME280;23490;53.656;10.076;2022-08-04T14:25:51;55870.38;;;-145.95;28.25
37648;BME280;23490;53.656;10.076;2022-08-04T14:28:30;55898.94;;;-145.95;29.67
37648;BME280;23490;53.656;10.076;2022-08-04T14:31:13;55866.31;;;-145.95;29.44
37648;BME280;23490;53.656;10.076;2022-08-04T14:33:40;55878.53;;;-145.95;28.83
37648;BME280;23490;53.656;10.076;2022-08-04T14:36:06;55876.50;;;-145.95;28.75
37648;BME280;23490;53.656;10.076;2022-08-04T14:38:52;55894.84;;;-145.95;28.73
37648;BME280;23490;53.656;10.076;2022-08-04T14:41:26;55845.91;;;-145.95;29.13
37648;BME280;23490;53.656;10.076;2022-08-04T14:43:57;55866.31;;;-145.95;31.24
37648;BME280;23490;53.656;10.076;2022-08-04T14:46:25;55866.31;;;-145.95;32.65
37648;BME280;23490;53.656;10.076;2022-08-04T14:49:08;55878.53;;;-145.95;33.27
37648;BME280;23490;53.656;10.076;2022-08-04T14:51:45;55884.66;;;-145.95;33.73
37648;BME280;23490;53.656;10.076;2022-08-04T14:54:15;55854.06;;;-145.95;34.80
37648;BME280;23490;53.656;10.076;2022-08-04T14:56:50;55852.03;;;-145.95;35.30
37648;BME280;23490;53.656;10.076;2022-08-04T14:59:16;55870.38;;;-145.95;35.74
37648;BME280;23490;53.656;10.076;2022-08-04T15:01:45;55833.66;;;-145.95;36.65
37648;BME280;23490;53.656;10.076;2022-08-04T15:04:12;55833.66;;;-145.95;37.36
37648;BME280;23490;53.656;10.076;2022-08-04T15:06:38;55817.34;;;-145.95;38.04
37648;BME280;23490;53.656;10.076;2022-08-04T15:09:07;55854.06;;;-145.95;39.01
37648;BME280;23490;53.656;10.076;2022-08-04T15:11:33;55850.00;;;-145.95;39.52
37648;BME280;23490;53.656;10.076;2022-08-04T15:14:00;55841.84;;;-145.95;40.64
37648;BME280;23490;53.656;10.076;2022-08-04T15:16:28;55854.06;;;-145.95;42.85
37648;BME280;23490;53.656;10.076;2022-08-04T15:18:54;55825.53;;;-145.95;44.28
37648;BME280;23490;53.656;10.076;2022-08-04T15:21:21;55845.91;;;-145.95;45.12
37648;BME280;23490;53.656;10.076;2022-08-04T15:23:47;55796.97;;;-145.95;46.64
37648;BME280;23490;53.656;10.076;2022-08-04T15:26:41;55811.25;;;-145.95;55.13
37648;BME280;23490;53.656;10.076;2022-08-04T15:29:15;55805.13;;;-145.95;59.10